Terminal Aerodrome Forecast
Issued by NWS

Home | Current Version | Previous Version | Text Only | Print | Product List | Glossary On
Versions: 1 2 3 4 5 6 7 8 9 10 11 12 13 14 15 16 17 18 19
000
FTUS43 KEAX 240500
TAFSTJ
TAF
KSTJ 240537Z 2406/2506 34014KT P6SM -RASN OVC012
     FM240800 34015G23KT 6SM -RASN BR OVC010
      TEMPO 2409/2412 5SM -SN BR BKN008
     FM241400 33015G23KT P6SM OVC012
     FM241900 32014KT P6SM OVC020
     FM250300 23006KT P6SM FEW025=

USA.gov is the U.S. government's official web portal to all federal, state and local government web resources and services.